Time;durP1;ratioP1;P1;durP2;ratioP2;P2;SDS_P1;SDS_P2;PMS_P1;PMS_P2;Temp;Humidity;BMP_temperature;BMP_pressure;BME280_temperature;BME280_humidity;BME280_pressure;Samples;Min_cycle;Max_cycle;Signal;HPM_P1;HPM_P2
2021/07/26 00:00:26;;;;;;;25.13;23.57;;;19.70;88.60;;;;;;5047358;28;20458;-72
2021/07/26 00:02:53;;;;;;;24.93;23.23;;;19.70;88.80;;;;;;5049549;28;20455;-72
2021/07/26 00:05:20;;;;;;;25.50;23.93;;;19.70;88.70;;;;;;5051022;28;20462;-72
2021/07/26 00:07:47;;;;;;;24.50;23.00;;;19.70;88.70;;;;;;5042958;28;20982;-72
2021/07/26 00:10:14;;;;;;;24.13;22.73;;;19.70;88.60;;;;;;5055933;28;20539;-72
2021/07/26 00:12:42;;;;;;;24.90;23.40;;;19.70;88.50;;;;;;5042869;28;20459;-72
2021/07/26 00:15:11;;;;;;;23.87;22.47;;;19.60;88.80;;;;;;5054529;28;20465;-72
2021/07/26 00:17:38;;;;;;;23.80;22.50;;;19.60;88.80;;;;;;5053066;28;20545;-72
2021/07/26 00:20:06;;;;;;;24.27;22.77;;;19.60;88.70;;;;;;5043556;28;20464;-71
2021/07/26 00:22:33;;;;;;;23.27;22.00;;;19.60;88.80;;;;;;5041403;28;20543;-71
2021/07/26 00:25:00;;;;;;;24.90;23.40;;;19.60;89.00;;;;;;5049958;28;20557;-71
2021/07/26 00:27:27;;;;;;;24.20;22.50;;;19.60;89.00;;;;;;5052861;28;20901;-72
2021/07/26 00:29:55;;;;;;;24.47;22.87;;;19.60;89.10;;;;;;5051364;28;20455;-72
2021/07/26 00:32:22;;;;;;;24.47;22.60;;;19.60;89.00;;;;;;5045971;28;20468;-71
2021/07/26 00:34:49;;;;;;;24.00;22.60;;;19.60;88.90;;;;;;5045818;28;20471;-72
2021/07/26 00:37:16;;;;;;;23.80;22.30;;;19.60;89.00;;;;;;5049658;28;20490;-72
2021/07/26 00:39:42;;;;;;;23.73;22.23;;;19.60;88.80;;;;;;5047196;28;20483;-71
2021/07/26 00:42:09;;;;;;;23.60;22.00;;;19.60;89.00;;;;;;5051269;28;20540;-71
2021/07/26 00:44:36;;;;;;;23.30;22.00;;;19.50;89.00;;;;;;5049913;28;20509;-72
2021/07/26 00:47:05;;;;;;;23.67;21.90;;;19.50;88.90;;;;;;5044857;28;20486;-72
2021/07/26 00:49:33;;;;;;;24.43;22.90;;;19.50;89.10;;;;;;5037075;28;20476;-72
2021/07/26 00:52:01;;;;;;;24.33;22.50;;;19.50;89.20;;;;;;5050567;28;20483;-71
2021/07/26 00:54:31;;;;;;;24.00;22.23;;;19.50;89.20;;;;;;5049486;28;20455;-72
2021/07/26 00:57:01;;;;;;;23.73;21.90;;;19.40;89.40;;;;;;5040913;28;20483;-72
2021/07/26 00:59:28;;;;;;;23.10;21.80;;;19.50;89.10;;;;;;5046500;28;20490;-71
2021/07/26 01:01:56;;;;;;;24.63;22.83;;;19.40;89.30;;;;;;5041774;28;20458;-71
2021/07/26 01:04:25;;;;;;;24.00;22.50;;;19.40;89.30;;;;;;5050780;28;20787;-71
2021/07/26 01:06:51;;;;;;;23.90;22.50;;;19.40;89.30;;;;;;5048537;28;20475;-71
2021/07/26 01:09:19;;;;;;;23.90;22.43;;;19.40;89.20;;;;;;5039520;28;20539;-72
2021/07/26 01:11:46;;;;;;;24.40;22.27;;;19.40;89.20;;;;;;5046416;28;20551;-71
2021/07/26 01:14:15;;;;;;;24.17;22.67;;;19.50;89.00;;;;;;5042156;28;20455;-71
2021/07/26 01:16:42;;;;;;;24.40;22.70;;;19.40;89.00;;;;;;5047813;28;20538;-71
2021/07/26 01:19:09;;;;;;;24.13;22.53;;;19.30;89.40;;;;;;5048186;28;20492;-71
2021/07/26 01:21:37;;;;;;;24.03;22.20;;;19.40;89.40;;;;;;5049149;28;20466;-71
2021/07/26 01:24:06;;;;;;;24.37;22.87;;;19.40;89.30;;;;;;5049640;28;20821;-71
2021/07/26 01:26:33;;;;;;;24.17;22.70;;;19.40;89.10;;;;;;5048164;28;20518;-71
2021/07/26 01:29:01;;;;;;;24.10;22.70;;;19.40;89.00;;;;;;5048943;28;20546;-71
2021/07/26 01:31:29;;;;;;;24.00;22.60;;;19.40;89.20;;;;;;5044816;28;20471;-71
2021/07/26 01:33:56;;;;;;;24.40;22.90;;;19.30;89.60;;;;;;5046439;28;20482;-71
2021/07/26 01:36:24;;;;;;;24.13;22.63;;;19.30;89.60;;;;;;5056305;28;20486;-72
2021/07/26 01:38:53;;;;;;;24.43;22.70;;;19.30;89.50;;;;;;5051479;28;20467;-72
2021/07/26 01:41:21;;;;;;;25.10;23.43;;;19.30;89.70;;;;;;5048966;28;20866;-72
2021/07/26 01:44:02;;;;;;;24.67;23.10;;;19.30;89.70;;;;;;5052765;28;20455;-72
2021/07/26 01:46:36;;;;;;;24.87;22.90;;;19.30;89.80;;;;;;5048045;28;21261;-72
2021/07/26 01:49:11;;;;;;;24.70;23.00;;;19.30;89.80;;;;;;5043910;28;20448;-72
2021/07/26 01:51:40;;;;;;;23.97;22.47;;;19.30;89.60;;;;;;5050178;28;20541;-72
2021/07/26 01:54:09;;;;;;;23.83;22.40;;;19.30;89.30;;;;;;5033543;28;20551;-72
2021/07/26 01:56:36;;;;;;;24.30;22.80;;;19.40;89.20;;;;;;5046837;28;23309;-71
2021/07/26 01:59:04;;;;;;;24.07;22.57;;;19.30;89.20;;;;;;5050090;28;20467;-71
2021/07/26 02:01:31;;;;;;;22.93;21.43;;;19.30;89.20;;;;;;5048230;28;20467;-71
2021/07/26 02:03:58;;;;;;;24.53;22.63;;;19.30;89.20;;;;;;5047470;28;21037;-72
2021/07/26 02:06:26;;;;;;;24.03;22.50;;;19.30;89.40;;;;;;5034406;28;20471;-71
2021/07/26 02:08:53;;;;;;;24.43;22.67;;;19.30;89.30;;;;;;5043543;28;20447;-71
2021/07/26 02:11:22;;;;;;;23.97;22.30;;;19.20;89.50;;;;;;5038808;28;20446;-71
2021/07/26 02:13:49;;;;;;;23.83;22.20;;;19.20;89.50;;;;;;5047891;28;20462;-71
2021/07/26 02:16:16;;;;;;;25.57;23.33;;;19.20;89.50;;;;;;5047592;28;20479;-71
2021/07/26 02:18:43;;;;;;;24.00;22.60;;;19.20;89.60;;;;;;5048562;28;20489;-71
2021/07/26 02:21:10;;;;;;;23.27;21.70;;;19.20;89.60;;;;;;5049583;28;20466;-71
2021/07/26 02:23:37;;;;;;;26.10;24.70;;;19.20;89.50;;;;;;5051388;28;20459;-71
2021/07/26 02:26:04;;;;;;;23.50;22.17;;;19.20;89.60;;;;;;5049100;28;20566;-71
2021/07/26 02:28:32;;;;;;;24.53;22.93;;;19.20;89.30;;;;;;5047534;28;20455;-71
2021/07/26 02:30:59;;;;;;;22.90;21.47;;;19.10;89.70;;;;;;5046082;28;20465;-71
2021/07/26 02:33:26;;;;;;;23.73;22.23;;;19.00;89.90;;;;;;5044139;28;20464;-71
2021/07/26 02:35:53;;;;;;;24.63;23.23;;;18.90;90.30;;;;;;5031482;28;20559;-71
2021/07/26 02:38:20;;;;;;;25.80;24.20;;;18.80;90.70;;;;;;5052769;28;20523;-71
2021/07/26 02:40:46;;;;;;;22.60;21.20;;;18.70;91.30;;;;;;5048162;28;20450;-71
2021/07/26 02:43:13;;;;;;;24.00;22.63;;;18.70;91.20;;;;;;5044713;28;21069;-72
2021/07/26 02:45:42;;;;;;;23.50;22.00;;;18.80;90.80;;;;;;5051063;28;20832;-71
2021/07/26 02:48:10;;;;;;;22.87;21.57;;;18.80;90.90;;;;;;5047853;28;20825;-71
2021/07/26 02:50:37;;;;;;;23.03;21.73;;;18.80;90.80;;;;;;5039395;28;20919;-71
2021/07/26 02:53:04;;;;;;;25.70;23.83;;;18.80;90.80;;;;;;5054499;28;20543;-70
2021/07/26 02:55:31;;;;;;;23.17;21.53;;;18.90;90.60;;;;;;5046767;28;20471;-71
2021/07/26 02:57:58;;;;;;;24.60;23.00;;;18.80;90.50;;;;;;5048078;28;20461;-71
2021/07/26 03:00:25;;;;;;;22.43;21.13;;;18.80;90.90;;;;;;5054332;28;20506;-72
2021/07/26 03:02:53;;;;;;;23.93;22.53;;;18.80;90.80;;;;;;5062902;28;20464;-72
2021/07/26 03:05:22;;;;;;;24.60;23.10;;;18.80;90.70;;;;;;5046348;28;21071;-72
2021/07/26 03:07:49;;;;;;;28.50;26.93;;;18.80;90.70;;;;;;5056285;28;20458;-72
2021/07/26 03:10:15;;;;;;;24.17;22.73;;;18.70;90.80;;;;;;5044140;28;20463;-72
2021/07/26 03:12:42;;;;;;;23.20;21.73;;;18.80;90.80;;;;;;5053679;28;20458;-72
2021/07/26 03:15:10;;;;;;;23.63;22.17;;;18.80;90.70;;;;;;5031875;28;20466;-71
2021/07/26 03:17:38;;;;;;;23.57;22.07;;;18.80;90.60;;;;;;5048355;28;20538;-71
2021/07/26 03:20:07;;;;;;;25.50;23.90;;;18.80;90.50;;;;;;5050603;28;20481;-71
2021/07/26 03:23:02;;;;;;;23.23;21.83;;;18.90;90.50;;;;;;5050922;28;20550;-71
2021/07/26 03:25:31;;;;;;;24.77;23.07;;;18.90;90.40;;;;;;5050647;28;20487;-71
2021/07/26 03:27:59;;;;;;;22.83;21.30;;;18.80;90.40;;;;;;5050267;28;20867;-71
2021/07/26 03:30:26;;;;;;;23.80;22.40;;;18.80;90.60;;;;;;5051554;28;20470;-71
2021/07/26 03:32:53;;;;;;;26.13;24.43;;;18.80;90.60;;;;;;5052436;28;20457;-71
2021/07/26 03:35:23;;;;;;;27.90;26.20;;;18.70;90.80;;;;;;5037876;28;21293;-71
2021/07/26 03:37:51;;;;;;;24.10;22.60;;;18.70;90.90;;;;;;5052988;28;20465;-71
2021/07/26 03:40:19;;;;;;;23.47;22.00;;;18.80;90.80;;;;;;5053809;28;20508;-71
2021/07/26 03:42:46;;;;;;;25.23;23.73;;;18.70;90.80;;;;;;5048174;28;20812;-71
2021/07/26 03:45:14;;;;;;;23.10;21.70;;;18.80;90.70;;;;;;5050503;28;20455;-71
2021/07/26 03:47:42;;;;;;;24.80;23.20;;;18.80;90.50;;;;;;5045286;28;20545;-70
2021/07/26 03:50:11;;;;;;;23.23;21.83;;;18.90;90.40;;;;;;5048509;28;20449;-71
2021/07/26 03:52:53;;;;;;;23.53;22.00;;;18.90;90.30;;;;;;5049650;28;20463;-70
2021/07/26 03:55:21;;;;;;;24.50;22.90;;;18.80;90.40;;;;;;5039196;28;20469;-71
2021/07/26 03:57:49;;;;;;;28.43;26.73;;;18.70;90.80;;;;;;5045274;28;20837;-71
2021/07/26 04:00:18;;;;;;;24.10;22.67;;;18.60;91.40;;;;;;5046792;28;20838;-71
2021/07/26 04:02:48;;;;;;;27.47;25.60;;;18.60;91.40;;;;;;5050709;28;20453;-71
2021/07/26 04:05:22;;;;;;;24.60;23.03;;;18.60;91.50;;;;;;5050771;28;20483;-71
2021/07/26 04:07:50;;;;;;;23.47;22.00;;;18.60;91.40;;;;;;5049567;28;20507;-72
2021/07/26 04:10:18;;;;;;;23.80;22.40;;;18.70;91.00;;;;;;5051131;28;20960;-72
2021/07/26 04:12:48;;;;;;;24.60;22.77;;;18.80;90.60;;;;;;5049561;28;20536;-72
2021/07/26 04:15:15;;;;;;;24.50;23.10;;;18.90;90.40;;;;;;5041485;28;20553;-72
2021/07/26 04:17:42;;;;;;;26.53;24.83;;;19.00;90.10;;;;;;5058211;28;20514;-71
2021/07/26 04:20:10;;;;;;;25.60;24.00;;;19.00;89.70;;;;;;5050499;28;20500;-71
2021/07/26 04:22:37;;;;;;;27.50;25.83;;;19.00;89.70;;;;;;5055251;28;20967;-71
2021/07/26 04:25:05;;;;;;;24.47;22.87;;;19.10;89.50;;;;;;5050696;28;20459;-70
2021/07/26 04:27:35;;;;;;;26.00;24.17;;;19.10;89.40;;;;;;5052103;28;20482;-71
2021/07/26 04:30:04;;;;;;;25.60;23.90;;;19.20;89.30;;;;;;5048838;28;20487;-71
2021/07/26 04:32:31;;;;;;;28.37;26.17;;;19.20;88.80;;;;;;5044646;28;20455;-71
2021/07/26 04:35:04;;;;;;;26.90;25.10;;;19.10;88.70;;;;;;5047247;28;20537;-71
2021/07/26 04:37:31;;;;;;;24.70;22.97;;;19.20;88.80;;;;;;5037431;28;20483;-71
2021/07/26 04:39:58;;;;;;;28.37;26.70;;;19.20;88.60;;;;;;5058668;28;20948;-71
2021/07/26 04:42:25;;;;;;;26.10;24.50;;;19.20;88.30;;;;;;5042361;28;20482;-71
2021/07/26 04:44:53;;;;;;;25.03;23.53;;;19.30;88.40;;;;;;5037640;28;21013;-71
2021/07/26 04:47:20;;;;;;;27.10;25.50;;;19.40;88.20;;;;;;5050688;28;20493;-72
2021/07/26 04:49:47;;;;;;;28.03;26.07;;;19.40;87.90;;;;;;5045324;28;20443;-74
2021/07/26 04:52:13;;;;;;;25.50;23.97;;;19.50;87.80;;;;;;5048559;28;20475;-74
2021/07/26 04:54:41;;;;;;;27.20;25.60;;;19.60;87.50;;;;;;5043776;28;20467;-75
2021/07/26 04:57:08;;;;;;;25.97;24.17;;;19.70;87.20;;;;;;5043657;28;20485;-75
2021/07/26 04:59:35;;;;;;;26.47;24.70;;;19.80;86.70;;;;;;5049866;28;20482;-75
2021/07/26 05:02:03;;;;;;;26.03;24.33;;;19.80;86.60;;;;;;5048591;28;20471;-76
2021/07/26 05:04:30;;;;;;;27.10;25.20;;;19.80;86.50;;;;;;5049408;28;20463;-73
2021/07/26 05:07:01;;;;;;;30.65;28.45;;;19.90;86.40;;;;;;5045664;28;20462;-73
2021/07/26 05:09:28;;;;;;;28.50;26.70;;;20.30;85.40;;;;;;5045870;28;20834;-71
2021/07/26 05:11:55;;;;;;;28.60;26.90;;;20.20;85.30;;;;;;5043918;28;20455;-72
2021/07/26 05:14:22;;;;;;;27.17;25.13;;;20.20;85.50;;;;;;5039121;28;20968;-72
2021/07/26 05:16:49;;;;;;;28.03;26.07;;;20.20;85.50;;;;;;5043674;28;20522;-72
2021/07/26 05:19:17;;;;;;;29.40;27.60;;;20.10;85.90;;;;;;5048782;28;20836;-75
2021/07/26 05:21:44;;;;;;;28.87;27.07;;;20.10;86.10;;;;;;5048668;28;20467;-76
2021/07/26 05:24:11;;;;;;;27.27;25.67;;;20.10;85.90;;;;;;5048902;28;20463;-73
2021/07/26 05:26:38;;;;;;;26.07;24.57;;;20.20;85.80;;;;;;5041941;28;20591;-73
2021/07/26 05:29:05;;;;;;;28.07;26.47;;;20.20;85.40;;;;;;5050606;28;20477;-73
2021/07/26 05:31:32;;;;;;;26.60;24.90;;;20.30;84.90;;;;;;5044857;28;20452;-73
2021/07/26 05:33:59;;;;;;;28.47;26.77;;;20.10;85.40;;;;;;5044520;28;20455;-73
2021/07/26 05:36:28;;;;;;;26.40;24.80;;;20.00;86.20;;;;;;5039290;28;20489;-74
2021/07/26 05:38:55;;;;;;;28.70;26.63;;;19.90;86.80;;;;;;5042633;28;20462;-73
2021/07/26 05:41:22;;;;;;;27.53;25.73;;;19.80;87.10;;;;;;5044073;28;20511;-75
2021/07/26 05:43:49;;;;;;;27.97;26.17;;;19.90;87.40;;;;;;5040075;28;20987;-76
2021/07/26 05:46:16;;;;;;;27.60;25.50;;;20.10;87.40;;;;;;5042901;28;20517;-76
2021/07/26 05:48:45;;;;;;;25.43;23.90;;;20.30;87.10;;;;;;5044357;28;20459;-74
2021/07/26 05:51:12;;;;;;;29.73;27.80;;;20.40;86.70;;;;;;5047057;28;21047;-74
2021/07/26 05:53:40;;;;;;;29.60;27.70;;;20.60;86.00;;;;;;5038902;28;20502;-74
2021/07/26 05:56:10;;;;;;;27.40;25.70;;;20.80;85.60;;;;;;5047551;28;20481;-74
2021/07/26 05:58:41;;;;;;;27.63;25.43;;;20.90;85.30;;;;;;5048007;28;20461;-74
2021/07/26 06:01:22;;;;;;;29.00;27.27;;;21.10;84.20;;;;;;5046873;28;20881;-75
2021/07/26 06:03:50;;;;;;;27.83;26.13;;;21.30;83.10;;;;;;5048317;28;20467;-74
2021/07/26 06:06:18;;;;;;;31.23;29.43;;;21.40;82.10;;;;;;5034654;28;20873;-75
2021/07/26 06:08:47;;;;;;;29.03;27.33;;;21.40;81.80;;;;;;5045137;28;20459;-74
2021/07/26 06:11:14;;;;;;;30.40;28.70;;;21.40;81.00;;;;;;5047089;28;20454;-74
2021/07/26 06:13:40;;;;;;;30.27;28.47;;;21.50;81.30;;;;;;5046629;28;20612;-74
2021/07/26 06:16:08;;;;;;;30.83;28.73;;;21.70;80.90;;;;;;5047304;28;20482;-74
2021/07/26 06:18:36;;;;;;;28.67;27.07;;;21.80;79.90;;;;;;5047359;28;20480;-74
2021/07/26 06:21:07;;;;;;;32.63;30.63;;;21.90;79.60;;;;;;5048605;28;20489;-74
2021/07/26 06:23:34;;;;;;;33.60;31.50;;;22.00;79.50;;;;;;5037884;28;20545;-75
2021/07/26 06:26:05;;;;;;;33.60;31.10;;;22.20;78.90;;;;;;5037737;28;21219;-74
2021/07/26 06:28:32;;;;;;;31.77;29.57;;;22.30;78.20;;;;;;5042171;28;20454;-75
2021/07/26 06:31:00;;;;;;;32.33;30.23;;;22.40;77.50;;;;;;5047078;28;20463;-74
2021/07/26 06:33:27;;;;;;;32.90;31.00;;;22.40;77.30;;;;;;5046705;28;20455;-74
2021/07/26 06:35:54;;;;;;;32.70;30.80;;;22.50;77.10;;;;;;5048035;28;20471;-74
2021/07/26 06:38:21;;;;;;;32.37;30.47;;;22.40;77.60;;;;;;5043226;28;21275;-76
2021/07/26 06:40:48;;;;;;;33.13;31.10;;;22.30;78.00;;;;;;5046462;28;20506;-74
2021/07/26 06:43:16;;;;;;;31.87;29.97;;;22.40;77.90;;;;;;5047537;28;20544;-74
2021/07/26 06:45:43;;;;;;;33.17;31.17;;;22.40;78.00;;;;;;5045306;28;20852;-74
2021/07/26 06:48:10;;;;;;;33.63;31.60;;;22.40;78.10;;;;;;5042983;28;20463;-74
2021/07/26 06:50:38;;;;;;;30.73;28.93;;;22.50;77.80;;;;;;5045716;28;20495;-74
2021/07/26 06:53:05;;;;;;;32.27;30.30;;;22.60;76.70;;;;;;5046936;28;20459;-73
2021/07/26 06:55:32;;;;;;;31.00;28.90;;;22.70;75.90;;;;;;5048254;28;20474;-73
2021/07/26 06:57:59;;;;;;;30.57;28.80;;;22.70;76.10;;;;;;5051339;28;20470;-73
2021/07/26 07:00:27;;;;;;;33.17;31.17;;;22.80;76.10;;;;;;5038245;28;20514;-73
2021/07/26 07:02:54;;;;;;;33.70;31.40;;;23.00;75.40;;;;;;5046256;28;20455;-73
2021/07/26 07:05:24;;;;;;;32.30;30.40;;;23.00;75.50;;;;;;5037423;28;20474;-73
2021/07/26 07:07:51;;;;;;;32.67;30.47;;;23.20;74.70;;;;;;5044433;28;20995;-73
2021/07/26 07:10:18;;;;;;;33.43;31.33;;;23.30;74.60;;;;;;5047057;28;20547;-73
2021/07/26 07:12:45;;;;;;;32.90;30.60;;;23.50;74.10;;;;;;5048238;28;20574;-74
2021/07/26 07:15:18;;;;;;;30.30;28.60;;;23.60;73.40;;;;;;5044204;28;20477;-72
2021/07/26 07:17:47;;;;;;;34.60;32.40;;;23.70;72.40;;;;;;5049825;28;20486;-73
2021/07/26 07:20:14;;;;;;;35.13;33.33;;;23.70;72.40;;;;;;5045944;28;20936;-73
2021/07/26 07:22:41;;;;;;;36.97;34.53;;;23.80;72.40;;;;;;5041905;28;20558;-73
2021/07/26 07:25:09;;;;;;;32.50;30.50;;;23.90;71.90;;;;;;5050356;28;20469;-72
2021/07/26 07:27:36;;;;;;;33.47;30.97;;;24.00;71.30;;;;;;5048003;28;20471;-74
2021/07/26 07:30:04;;;;;;;34.17;32.00;;;24.10;70.70;;;;;;5046198;28;20455;-74
2021/07/26 07:32:35;;;;;;;33.27;31.30;;;24.10;70.80;;;;;;5050213;28;21841;-74
2021/07/26 07:35:04;;;;;;;31.13;29.17;;;24.20;70.00;;;;;;5048028;28;20504;-74
2021/07/26 07:37:30;;;;;;;33.40;31.40;;;24.20;69.90;;;;;;5041338;28;20493;-74
2021/07/26 07:39:58;;;;;;;33.70;31.70;;;24.30;69.70;;;;;;5046227;28;20817;-74
2021/07/26 07:42:24;;;;;;;31.23;29.37;;;24.30;69.30;;;;;;5049061;28;21028;-74
2021/07/26 07:44:52;;;;;;;33.20;31.17;;;24.50;68.40;;;;;;5049275;28;20469;-74
2021/07/26 07:47:19;;;;;;;33.33;31.33;;;24.60;68.20;;;;;;5048364;28;20525;-74
2021/07/26 07:49:46;;;;;;;33.57;31.73;;;24.50;69.00;;;;;;5042317;28;20458;-74
2021/07/26 07:52:14;;;;;;;33.17;31.27;;;24.60;68.50;;;;;;5047122;28;20757;-74
2021/07/26 07:54:41;;;;;;;32.27;30.20;;;24.60;68.40;;;;;;5039590;28;20558;-74
2021/07/26 07:57:09;;;;;;;34.63;32.53;;;24.70;68.40;;;;;;5040765;28;20508;-74
2021/07/26 07:59:35;;;;;;;32.07;30.17;;;24.90;68.50;;;;;;5044239;28;20454;-74
2021/07/26 08:02:06;;;;;;;32.70;30.80;;;25.00;68.00;;;;;;5046595;28;20509;-74
2021/07/26 08:04:35;;;;;;;33.80;31.80;;;25.10;67.50;;;;;;5037811;28;20538;-74
2021/07/26 08:07:03;;;;;;;31.90;30.10;;;25.20;67.00;;;;;;5036597;28;20578;-75
2021/07/26 08:09:31;;;;;;;35.13;32.70;;;25.40;66.10;;;;;;5048026;28;20542;-73
2021/07/26 08:11:58;;;;;;;34.67;32.17;;;25.60;65.10;;;;;;5044933;28;20455;-73
2021/07/26 08:14:26;;;;;;;34.33;31.67;;;25.70;64.70;;;;;;5038519;28;21225;-73
2021/07/26 08:16:53;;;;;;;34.70;32.20;;;25.80;64.60;;;;;;5034914;28;21001;-73
2021/07/26 08:19:20;;;;;;;33.87;31.47;;;25.80;64.70;;;;;;5039449;28;20463;-73
2021/07/26 08:21:47;;;;;;;31.97;30.00;;;25.90;64.00;;;;;;5045917;28;20569;-73
2021/07/26 08:24:14;;;;;;;33.80;31.50;;;26.00;63.40;;;;;;5047893;28;20827;-74
2021/07/26 08:26:42;;;;;;;32.97;30.63;;;26.10;64.70;;;;;;5046323;28;20494;-74
2021/07/26 08:29:09;;;;;;;34.13;31.90;;;26.20;64.50;;;;;;5048839;28;20461;-73
2021/07/26 08:31:36;;;;;;;34.10;32.00;;;26.30;64.00;;;;;;5038415;28;20595;-74
2021/07/26 08:34:03;;;;;;;33.97;31.97;;;26.50;63.20;;;;;;5041715;28;20462;-73
2021/07/26 08:36:30;;;;;;;33.00;31.10;;;26.50;63.60;;;;;;5044523;28;20570;-73
2021/07/26 08:38:56;;;;;;;33.53;31.53;;;26.60;62.70;;;;;;5047071;28;20458;-74
2021/07/26 08:41:24;;;;;;;36.07;33.97;;;26.70;62.80;;;;;;5045150;28;20475;-73
2021/07/26 08:43:52;;;;;;;34.67;32.67;;;26.70;63.20;;;;;;5048389;28;20455;-75
2021/07/26 08:46:20;;;;;;;34.70;32.60;;;26.80;62.70;;;;;;5044527;28;20481;-74
2021/07/26 08:48:50;;;;;;;33.50;31.60;;;26.90;63.10;;;;;;5042769;28;20520;-75
2021/07/26 08:51:20;;;;;;;36.53;34.33;;;27.00;62.90;;;;;;5039625;28;20447;-73
2021/07/26 08:53:49;;;;;;;32.87;30.87;;;27.20;62.70;;;;;;5042241;28;21075;-73
2021/07/26 08:56:18;;;;;;;33.87;31.93;;;27.20;61.60;;;;;;5039654;28;20566;-73
2021/07/26 08:58:45;;;;;;;32.33;30.43;;;27.30;61.50;;;;;;5047293;28;20459;-74
2021/07/26 09:01:15;;;;;;;33.53;31.43;;;27.20;61.60;;;;;;5044024;28;20477;-75
2021/07/26 09:03:42;;;;;;;33.90;31.70;;;27.20;61.80;;;;;;5048125;28;20462;-74
2021/07/26 09:06:09;;;;;;;33.70;31.70;;;27.10;61.60;;;;;;5048963;28;20467;-74
2021/07/26 09:08:38;;;;;;;33.10;31.00;;;27.10;61.40;;;;;;5048580;28;20540;-73
2021/07/26 09:11:07;;;;;;;36.57;34.47;;;26.60;62.10;;;;;;5045520;28;20451;-74
2021/07/26 09:13:35;;;;;;;34.07;31.40;;;26.70;62.30;;;;;;5036594;28;21212;-74
2021/07/26 09:16:17;;;;;;;34.47;32.33;;;26.80;62.50;;;;;;5042389;28;20532;-74
2021/07/26 09:18:45;;;;;;;34.53;32.10;;;26.90;62.60;;;;;;5042685;28;20960;-75
2021/07/26 09:21:12;;;;;;;36.30;34.00;;;26.90;61.30;;;;;;5036610;28;20482;-76
2021/07/26 09:24:05;;;;;;;31.60;29.80;;;27.00;60.30;;;;;;5047318;28;20465;-75
2021/07/26 09:26:32;;;;;;;32.87;30.97;;;27.10;59.70;;;;;;5031829;28;20892;-74
2021/07/26 09:28:59;;;;;;;32.80;30.90;;;27.20;59.20;;;;;;5041410;28;20559;-74
2021/07/26 09:31:27;;;;;;;34.53;32.53;;;27.40;58.60;;;;;;5042327;28;20458;-73
2021/07/26 09:33:54;;;;;;;34.10;32.10;;;27.40;59.00;;;;;;5047598;28;20903;-73
2021/07/26 09:36:21;;;;;;;32.90;30.90;;;27.50;58.90;;;;;;5037825;28;21311;-75
2021/07/26 09:38:57;;;;;;;34.07;31.87;;;27.60;59.20;;;;;;5047366;28;20517;-73
2021/07/26 09:41:43;;;;;;;39.93;36.43;;;27.80;59.10;;;;;;5043957;28;20479;-75
2021/07/26 09:44:11;;;;;;;33.57;31.50;;;27.90;58.80;;;;;;5047580;28;20451;-75
2021/07/26 09:46:40;;;;;;;31.87;30.00;;;27.90;57.70;;;;;;5046663;28;20472;-75
2021/07/26 09:49:11;;;;;;;31.87;29.77;;;27.90;56.70;;;;;;5037270;28;20803;-74
2021/07/26 09:51:39;;;;;;;30.70;28.80;;;27.70;57.40;;;;;;5045378;28;20451;-75
2021/07/26 09:54:07;;;;;;;30.83;29.03;;;27.70;57.70;;;;;;5036727;28;20487;-75
2021/07/26 09:56:34;;;;;;;31.47;29.57;;;27.70;57.90;;;;;;5035608;28;20478;-75
2021/07/26 09:59:02;;;;;;;31.60;29.70;;;27.70;57.30;;;;;;5039655;28;20456;-74
2021/07/26 10:01:32;;;;;;;32.23;30.13;;;27.70;58.40;;;;;;5038561;28;20572;-74
2021/07/26 10:04:01;;;;;;;34.87;32.53;;;27.80;58.50;;;;;;5043231;28;20455;-74
2021/07/26 10:06:29;;;;;;;35.50;33.30;;;27.90;59.30;;;;;;5047441;28;20479;-74
2021/07/26 10:08:56;;;;;;;36.03;33.93;;;27.90;58.50;;;;;;5045163;28;20450;-76
2021/07/26 10:11:24;;;;;;;32.77;30.33;;;28.00;57.30;;;;;;5045997;28;20463;-77
2021/07/26 10:13:51;;;;;;;33.03;31.13;;;28.00;58.40;;;;;;5049107;28;20464;-74
2021/07/26 10:16:19;;;;;;;37.60;35.40;;;27.90;56.40;;;;;;5047211;28;20569;-76
2021/07/26 10:18:47;;;;;;;37.07;34.30;;;27.80;56.80;;;;;;5041396;28;20467;-77
2021/07/26 10:21:18;;;;;;;37.47;35.17;;;27.70;57.50;;;;;;5047754;28;20479;-75
2021/07/26 10:23:53;;;;;;;35.27;33.20;;;27.80;57.80;;;;;;5043234;28;20458;-76
2021/07/26 10:26:24;;;;;;;31.00;29.20;;;27.80;57.10;;;;;;5045301;28;20569;-76
2021/07/26 10:28:54;;;;;;;34.23;32.13;;;27.80;57.10;;;;;;5046770;28;20451;-74
2021/07/26 10:31:44;;;;;;;35.73;33.63;;;27.90;57.50;;;;;;5036882;28;20467;-76
2021/07/26 10:34:13;;;;;;;38.53;36.10;;;28.10;56.60;;;;;;5035418;28;20544;-74
2021/07/26 10:36:58;;;;;;;36.40;34.10;;;28.30;57.00;;;;;;5046128;28;21038;-76
2021/07/26 10:39:28;;;;;;;35.70;33.63;;;28.70;56.50;;;;;;5036685;28;20491;-74
2021/07/26 10:42:04;;;;;;;31.83;29.90;;;28.90;56.40;;;;;;5046141;28;20989;-76
2021/07/26 10:44:47;;;;;;;34.13;32.13;;;29.10;55.40;;;;;;5047050;28;20454;-75
2021/07/26 10:47:15;;;;;;;30.70;28.70;;;29.30;55.70;;;;;;5046528;28;20987;-75
2021/07/26 10:50:11;;;;;;;31.20;29.20;;;29.40;55.70;;;;;;5041863;28;20455;-75
2021/07/26 10:52:46;;;;;;;31.80;29.80;;;29.60;55.10;;;;;;5039965;28;20462;-75
2021/07/26 10:55:57;;;;;;;30.30;28.43;;;29.80;53.00;;;;;;5036159;28;20455;-75
2021/07/26 10:59:01;;;;;;;31.20;29.40;;;29.80;52.60;;;;;;5046578;28;20512;-74
2021/07/26 11:01:55;;;;;;;32.30;30.40;;;29.90;52.90;;;;;;5029802;28;20483;-76
2021/07/26 11:04:46;;;;;;;33.70;31.70;;;30.00;52.50;;;;;;5047879;28;20451;-75
2021/07/26 11:07:31;;;;;;;33.20;31.20;;;30.10;52.10;;;;;;5023401;28;20557;-74
2021/07/26 11:09:59;;;;;;;33.23;31.33;;;30.00;52.80;;;;;;5045072;28;20463;-74
2021/07/26 11:12:55;;;;;;;31.00;29.20;;;30.00;53.60;;;;;;5047300;28;20541;-74
2021/07/26 11:15:23;;;;;;;32.87;30.77;;;30.10;53.20;;;;;;5043016;28;20462;-75
2021/07/26 11:18:30;;;;;;;35.50;33.40;;;30.20;53.20;;;;;;5046285;28;20933;-74
2021/07/26 11:21:12;;;;;;;35.33;33.27;;;30.20;52.80;;;;;;5046608;28;20516;-75
2021/07/26 11:23:47;;;;;;;35.03;32.93;;;30.30;51.60;;;;;;5046243;28;20446;-75
2021/07/26 11:26:35;;;;;;;31.90;30.10;;;30.30;52.30;;;;;;5046777;28;20486;-75
2021/07/26 11:29:03;;;;;;;32.77;30.77;;;30.20;52.20;;;;;;5039816;28;20455;-75
2021/07/26 11:31:34;;;;;;;34.10;31.90;;;30.10;52.30;;;;;;5036904;28;20463;-75
2021/07/26 11:34:06;;;;;;;30.30;28.60;;;30.20;52.90;;;;;;5048397;28;20469;-74
2021/07/26 11:36:33;;;;;;;30.87;29.17;;;30.10;50.60;;;;;;5046861;28;21263;-73
2021/07/26 11:39:02;;;;;;;33.03;31.10;;;30.00;50.40;;;;;;5049769;28;20501;-72
2021/07/26 11:41:30;;;;;;;34.80;32.80;;;30.10;50.50;;;;;;5048329;28;20488;-73
2021/07/26 11:43:58;;;;;;;34.03;32.03;;;30.00;51.50;;;;;;5051388;28;20494;-73
2021/07/26 11:46:27;;;;;;;34.30;32.23;;;30.10;51.10;;;;;;5045880;28;20479;-75
2021/07/26 11:48:55;;;;;;;32.00;30.20;;;29.90;52.60;;;;;;5046514;28;20455;-75
2021/07/26 11:51:31;;;;;;;35.20;33.10;;;29.70;52.20;;;;;;5044692;28;22370;-74
2021/07/26 11:54:03;;;;;;;32.47;30.57;;;29.50;52.80;;;;;;5049998;28;20537;-75
2021/07/26 11:56:31;;;;;;;32.07;30.10;;;29.40;52.60;;;;;;5039139;28;20488;-76
2021/07/26 11:59:30;;;;;;;30.10;28.30;;;29.20;53.80;;;;;;5046886;28;20461;-74
2021/07/26 12:01:59;;;;;;;33.53;31.63;;;29.00;52.30;;;;;;5001303;28;20539;-74
2021/07/26 12:04:28;;;;;;;32.03;30.10;;;28.00;57.20;;;;;;5037337;28;20578;-73
2021/07/26 12:07:02;;;;;;;32.53;30.67;;;27.60;59.30;;;;;;5044376;28;20980;-73
2021/07/26 12:09:29;;;;;;;35.30;33.10;;;26.70;62.20;;;;;;5049942;28;20548;-74
2021/07/26 12:12:10;;;;;;;32.20;30.20;;;26.50;63.50;;;;;;5048683;28;21032;-73
2021/07/26 12:14:37;;;;;;;31.53;29.53;;;26.20;64.70;;;;;;5042541;28;20463;-73
2021/07/26 12:17:06;;;;;;;33.67;31.57;;;26.00;65.50;;;;;;5051353;28;20484;-74
2021/07/26 12:19:34;;;;;;;33.80;31.80;;;25.50;66.90;;;;;;5046998;28;20462;-73
2021/07/26 12:22:15;;;;;;;31.60;29.70;;;25.00;68.10;;;;;;5050612;28;20482;-73
2021/07/26 12:24:47;;;;;;;31.43;29.63;;;24.90;69.30;;;;;;5040924;28;20458;-73
2021/07/26 12:27:27;;;;;;;33.70;31.60;;;24.90;69.20;;;;;;5047573;28;20483;-73
2021/07/26 12:29:56;;;;;;;30.80;28.70;;;24.90;69.30;;;;;;5034504;28;20451;-74
2021/07/26 12:32:23;;;;;;;33.63;31.63;;;25.00;68.90;;;;;;5038071;28;20467;-73
2021/07/26 12:35:13;;;;;;;30.60;28.70;;;25.20;68.50;;;;;;5048305;28;20461;-75
2021/07/26 12:37:40;;;;;;;35.53;33.07;;;25.30;68.00;;;;;;5043050;28;20451;-75
2021/07/26 12:40:15;;;;;;;32.60;30.60;;;25.50;67.30;;;;;;5047602;28;20461;-75